Time;durP1;ratioP1;P1;durP2;ratioP2;P2;SDS_P1;SDS_P2;PMS_P1;PMS_P2;Temp;Humidity;BMP_temperature;BMP_pressure;BME280_temperature;BME280_humidity;BME280_pressure;Samples;Min_cycle;Max_cycle;Signal;HPM_P1;HPM_P2
2022/09/16 00:26:49;;;;;;;0.82;0.82;;;19.60;62.60;;;;;;6124499;23;20232;-84
2022/09/16 00:29:42;;;;;;;0.70;0.70;;;19.60;62.60;;;;;;6041561;23;20219;-83
2022/09/16 01:14:52;;;;;;;0.80;0.80;;;19.50;62.80;;;;;;6170313;23;20194;-83
2022/09/16 01:40:27;;;;;;;1.40;0.80;;;19.50;63.00;;;;;;6064526;23;20274;-82
2022/09/16 01:46:31;;;;;;;1.00;0.80;;;19.50;63.00;;;;;;6184031;23;20222;-84
2022/09/16 01:49:49;;;;;;;0.80;0.80;;;19.50;63.00;;;;;;6135288;23;20143;-83
2022/09/16 02:00:44;;;;;;;0.80;0.80;;;19.50;63.10;;;;;;6119812;23;20206;-83
2022/09/16 02:03:22;;;;;;;0.68;0.60;;;19.50;63.10;;;;;;6076141;23;20252;-83
2022/09/16 02:06:51;;;;;;;0.80;0.80;;;19.50;63.10;;;;;;6043762;23;20194;-83
2022/09/16 02:09:25;;;;;;;0.70;0.70;;;19.50;63.10;;;;;;6052967;23;20211;-84
2022/09/16 02:12:14;;;;;;;0.70;0.70;;;19.50;63.00;;;;;;6113280;23;20191;-83
2022/09/16 02:30:51;;;;;;;0.80;0.80;;;19.50;63.20;;;;;;6043593;23;20478;-82
2022/09/16 02:33:59;;;;;;;0.80;0.80;;;19.50;63.20;;;;;;6122073;23;20185;-83
2022/09/16 02:37:04;;;;;;;0.57;0.57;;;19.50;63.20;;;;;;6079101;23;20156;-83
2022/09/16 02:40:00;;;;;;;0.90;0.85;;;19.50;63.30;;;;;;6040039;23;20162;-84
2022/09/16 02:43:06;;;;;;;0.60;0.60;;;19.50;63.20;;;;;;6015613;23;20211;-84
2022/09/16 02:46:09;;;;;;;0.60;0.60;;;19.50;63.40;;;;;;6122244;23;20221;-83
2022/09/16 02:53:59;;;;;;;0.60;0.60;;;19.50;63.40;;;;;;6066461;23;20187;-83
2022/09/16 02:56:42;;;;;;;0.80;0.80;;;19.50;63.30;;;;;;6138200;23;20155;-84
2022/09/16 03:10:34;;;;;;;1.15;0.63;;;19.50;63.40;;;;;;6086922;23;20194;-84
2022/09/16 03:17:08;;;;;;;0.70;0.70;;;19.50;63.40;;;;;;6157085;23;20147;-83
2022/09/16 03:20:18;;;;;;;0.95;0.80;;;19.50;64.30;;;;;;6119246;23;20187;-83
2022/09/16 03:23:44;;;;;;;0.63;0.60;;;19.50;63.40;;;;;;6111260;23;20170;-85
2022/09/16 03:26:19;;;;;;;1.10;0.80;;;19.50;63.40;;;;;;6077973;23;20199;-84
2022/09/16 03:29:30;;;;;;;0.70;0.70;;;19.50;63.40;;;;;;6054484;23;20172;-83
2022/09/16 03:32:21;;;;;;;0.85;0.85;;;19.50;63.50;;;;;;6050030;23;20152;-85
2022/09/16 03:34:49;;;;;;;0.70;0.70;;;19.50;63.40;;;;;;6077679;23;20207;-84
2022/09/16 03:37:33;;;;;;;0.63;0.63;;;19.50;63.50;;;;;;6078113;23;20144;-83
2022/09/16 03:40:57;;;;;;;0.70;0.70;;;19.50;63.50;;;;;;6067760;23;20176;-83
2022/09/16 03:43:55;;;;;;;0.93;0.77;;;19.50;63.50;;;;;;6020352;23;20146;-83
2022/09/16 03:46:29;;;;;;;0.60;0.60;;;19.50;63.60;;;;;;5996408;23;20194;-83
2022/09/16 03:48:58;;;;;;;0.73;0.73;;;19.50;63.60;;;;;;6042050;23;20158;-83
2022/09/16 03:51:44;;;;;;;0.80;0.80;;;19.50;63.60;;;;;;6015401;23;20168;-83
2022/09/16 03:54:33;;;;;;;0.70;0.70;;;19.40;63.50;;;;;;6019019;23;20157;-83
2022/09/16 03:56:59;;;;;;;0.70;0.70;;;19.50;63.50;;;;;;6018350;23;20186;-83
2022/09/16 04:00:06;;;;;;;0.68;0.68;;;19.50;63.60;;;;;;6042935;23;20206;-83
2022/09/16 04:03:11;;;;;;;0.50;0.50;;;19.50;64.40;;;;;;5958870;23;20177;-84
2022/09/16 04:06:19;;;;;;;0.70;0.60;;;19.50;63.60;;;;;;5958627;23;20168;-83
2022/09/16 04:37:42;;;;;;;1.33;0.70;;;19.50;63.90;;;;;;6092295;23;20210;-83
2022/09/16 05:20:23;;;;;;;1.50;0.77;;;19.50;63.50;;;;;;6125286;23;20183;-83
2022/09/16 05:31:29;;;;;;;1.10;1.00;;;19.50;63.20;;;;;;6075287;23;20212;-83
2022/09/16 05:39:32;;;;;;;0.88;0.88;;;19.50;63.10;;;;;;6075794;23;20246;-84
2022/09/16 05:42:03;;;;;;;0.85;0.80;;;19.50;63.00;;;;;;6100297;23;20136;-84
2022/09/16 05:44:33;;;;;;;0.70;0.70;;;19.50;63.10;;;;;;6101267;23;20140;-84
2022/09/16 05:46:59;;;;;;;0.80;0.80;;;19.40;62.90;;;;;;6070409;23;20187;-86
2022/09/16 05:49:35;;;;;;;0.70;0.70;;;19.50;62.70;;;;;;6047569;23;20160;-84
2022/09/16 05:52:11;;;;;;;0.80;0.80;;;19.50;62.70;;;;;;6007677;23;20140;-84
2022/09/16 05:54:39;;;;;;;0.85;0.85;;;19.50;62.80;;;;;;5985345;23;20158;-84
2022/09/16 05:57:15;;;;;;;0.82;0.82;;;19.50;63.00;;;;;;6031091;23;20158;-84
2022/09/16 05:59:46;;;;;;;0.70;0.70;;;19.50;62.90;;;;;;6032119;23;20150;-84
2022/09/16 06:02:18;;;;;;;0.90;0.90;;;19.50;62.80;;;;;;6008587;23;20166;-85
2022/09/16 06:04:57;;;;;;;0.65;0.65;;;19.50;62.90;;;;;;6008089;23;20258;-84
2022/09/16 06:07:28;;;;;;;0.80;0.80;;;19.50;62.60;;;;;;5962156;23;20206;-83
2022/09/16 06:10:15;;;;;;;0.70;0.70;;;19.50;63.00;;;;;;5961760;23;20163;-84
2022/09/16 06:12:58;;;;;;;0.82;0.82;;;19.50;63.00;;;;;;6008505;23;20163;-83
2022/09/16 06:15:27;;;;;;;0.70;0.70;;;19.50;63.00;;;;;;6026855;23;20163;-84
2022/09/16 06:18:10;;;;;;;0.80;0.80;;;19.50;62.90;;;;;;5980383;24;20147;-84
2022/09/16 06:20:44;;;;;;;0.80;0.80;;;19.50;63.10;;;;;;5954420;24;20243;-83
2022/09/16 06:23:14;;;;;;;0.68;0.68;;;19.50;63.00;;;;;;6010673;23;20199;-84
2022/09/16 06:25:41;;;;;;;0.80;0.80;;;19.50;62.90;;;;;;5987852;23;20158;-84
2022/09/16 06:28:16;;;;;;;0.63;0.63;;;19.50;63.00;;;;;;6011813;23;20602;-84
2022/09/16 06:31:04;;;;;;;0.65;0.65;;;19.50;63.10;;;;;;5991273;23;20158;-84
2022/09/16 06:33:37;;;;;;;0.80;0.80;;;19.60;63.00;;;;;;6006389;23;20155;-84
2022/09/16 06:36:21;;;;;;;0.85;0.85;;;19.60;63.00;;;;;;6006106;23;20163;-84
2022/09/16 06:41:39;;;;;;;0.80;0.80;;;19.50;63.00;;;;;;5130013;27;20571;-84
2022/09/16 06:44:09;;;;;;;0.77;0.77;;;19.50;63.00;;;;;;5096934;28;20180;-84
2022/09/16 06:46:49;;;;;;;0.80;0.80;;;19.60;63.10;;;;;;5078071;28;20202;-83
2022/09/16 06:49:22;;;;;;;0.88;0.88;;;19.60;63.10;;;;;;5061726;28;20182;-84
2022/09/16 06:51:58;;;;;;;0.77;0.77;;;19.50;63.00;;;;;;5112885;28;20225;-83
2022/09/16 06:54:27;;;;;;;1.13;0.60;;;19.50;62.80;;;;;;5097651;28;20148;-83
2022/09/16 06:56:54;;;;;;;0.80;0.80;;;19.50;62.90;;;;;;5097484;28;20190;-83
2022/09/16 06:59:32;;;;;;;0.80;0.80;;;19.50;62.70;;;;;;5097170;28;20183;-83
2022/09/16 07:02:03;;;;;;;0.80;0.80;;;19.50;62.90;;;;;;5096586;28;20256;-86
2022/09/16 07:04:30;;;;;;;0.80;0.80;;;19.50;63.00;;;;;;5114731;28;20171;-83
2022/09/16 07:07:03;;;;;;;0.90;0.90;;;19.50;63.10;;;;;;5093919;28;20177;-83
2022/09/16 07:09:31;;;;;;;0.80;0.80;;;19.60;63.10;;;;;;5073208;28;20185;-83
2022/09/16 07:12:19;;;;;;;0.80;0.80;;;19.60;63.10;;;;;;5073502;28;20173;-83
2022/09/16 07:14:56;;;;;;;0.80;0.80;;;19.60;63.00;;;;;;5056470;28;20242;-83
2022/09/16 07:17:29;;;;;;;0.90;0.90;;;19.60;62.90;;;;;;5052042;28;20193;-83
2022/09/16 07:19:58;;;;;;;1.52;0.82;;;19.60;62.90;;;;;;4995689;28;20230;-83
2022/09/16 07:22:31;;;;;;;0.82;0.82;;;19.60;63.10;;;;;;5012263;28;20272;-84
2022/09/16 07:25:08;;;;;;;1.08;1.00;;;19.60;63.00;;;;;;5014316;28;20720;-83
2022/09/16 07:27:36;;;;;;;0.90;0.90;;;19.60;63.00;;;;;;4996731;28;20183;-84
2022/09/16 07:30:07;;;;;;;1.08;0.80;;;19.50;62.90;;;;;;5014308;28;20168;-83
2022/09/16 07:32:34;;;;;;;0.77;0.77;;;19.50;63.70;;;;;;5013384;28;20203;-83
2022/09/16 07:35:21;;;;;;;1.05;1.00;;;19.50;62.70;;;;;;5013759;28;20250;-85
2022/09/16 07:37:52;;;;;;;0.90;0.90;;;19.60;62.80;;;;;;5009898;28;20195;-85
2022/09/16 07:40:18;;;;;;;0.70;0.70;;;19.60;62.80;;;;;;5028600;28;20231;-85
2022/09/16 07:42:45;;;;;;;0.85;0.85;;;19.60;62.50;;;;;;5013243;28;20175;-85
2022/09/16 07:45:35;;;;;;;0.70;0.70;;;19.50;62.60;;;;;;5025027;28;20179;-87
2022/09/16 07:48:09;;;;;;;0.90;0.90;;;19.60;62.60;;;;;;5028204;28;20191;-81
2022/09/16 07:50:36;;;;;;;1.05;0.73;;;19.60;62.70;;;;;;5015072;28;20186;-83
2022/09/16 07:53:03;;;;;;;1.92;0.98;;;19.60;62.70;;;;;;4998227;28;20152;-83
2022/09/16 07:55:34;;;;;;;1.77;0.90;;;19.60;62.70;;;;;;5033369;28;20168;-83
2022/09/16 07:57:59;;;;;;;0.88;0.82;;;19.60;62.60;;;;;;5062767;28;20187;-84
2022/09/16 08:00:32;;;;;;;1.95;0.90;;;19.60;62.50;;;;;;5081998;28;20220;-83
2022/09/16 08:03:04;;;;;;;0.90;0.90;;;19.70;62.50;;;;;;5039996;28;20245;-83
2022/09/16 08:05:31;;;;;;;0.80;0.80;;;19.60;62.50;;;;;;5000564;28;20179;-84
2022/09/16 08:07:57;;;;;;;1.25;1.10;;;19.60;62.50;;;;;;5012928;28;20707;-83
2022/09/16 08:10:28;;;;;;;0.95;0.90;;;19.60;62.50;;;;;;5015974;28;20183;-83
2022/09/16 08:12:59;;;;;;;0.82;0.82;;;19.60;62.50;;;;;;5034008;28;20251;-84
2022/09/16 08:15:32;;;;;;;1.38;0.95;;;19.60;62.40;;;;;;5033204;28;20491;-83
2022/09/16 08:18:04;;;;;;;1.00;1.00;;;19.70;62.40;;;;;;5001260;28;20195;-84
2022/09/16 08:20:31;;;;;;;0.93;0.93;;;19.70;62.50;;;;;;4996593;28;20216;-84
2022/09/16 08:22:58;;;;;;;0.80;0.80;;;19.60;62.30;;;;;;4998300;28;20208;-84
2022/09/16 08:25:30;;;;;;;0.90;0.90;;;19.70;62.40;;;;;;4998302;28;20247;-84
2022/09/16 08:27:57;;;;;;;1.05;0.90;;;19.70;62.30;;;;;;4996178;28;20255;-84
2022/09/16 08:30:30;;;;;;;1.05;1.00;;;19.70;62.30;;;;;;5014566;28;20211;-83
2022/09/16 08:32:57;;;;;;;1.20;1.10;;;19.60;62.20;;;;;;4986663;28;20180;-85
2022/09/16 08:35:26;;;;;;;0.88;0.88;;;19.70;62.10;;;;;;4960821;28;20183;-83
2022/09/16 08:37:56;;;;;;;1.10;1.00;;;19.70;62.10;;;;;;5019877;28;20214;-83
2022/09/16 08:40:23;;;;;;;1.05;0.95;;;19.70;62.20;;;;;;5015984;28;20277;-84
2022/09/16 08:43:00;;;;;;;0.90;0.90;;;19.80;62.10;;;;;;5015061;28;20175;-84
2022/09/16 08:45:34;;;;;;;0.90;0.90;;;19.80;62.20;;;;;;5021865;28;20186;-84
2022/09/16 08:48:21;;;;;;;0.80;0.80;;;19.80;62.10;;;;;;5017374;28;20179;-84
2022/09/16 09:07:36;;;;;;;1.00;1.00;;;19.80;62.20;;;;;;5927201;23;20357;-83
2022/09/16 09:37:16;;;;;;;1.10;1.10;;;19.70;61.60;;;;;;5889415;23;20412;-82
2022/09/16 09:47:57;;;;;;;1.20;1.10;;;19.80;61.70;;;;;;5446944;23;20241;-83
2022/09/16 10:11:26;;;;;;;1.00;0.90;;;19.80;61.80;;;;;;4998237;28;20272;-83
2022/09/16 11:03:48;;;;;;;0.90;0.90;;;19.90;61.20;;;;;;5962296;23;20227;-83
2022/09/16 15:06:22;;;;;;;0.70;0.70;;;20.00;63.00;;;;;;5138111;23;20249;-84
2022/09/16 15:08:59;;;;;;;1.30;0.73;;;20.10;63.10;;;;;;4980571;28;20191;-83
2022/09/16 15:40:29;;;;;;;0.77;0.77;;;20.10;62.40;;;;;;5072127;23;20302;-83
2022/09/16 15:43:29;;;;;;;1.27;0.68;;;20.10;62.60;;;;;;5036540;28;20602;-84
2022/09/16 15:49:44;;;;;;;2.33;0.88;;;20.10;63.00;;;;;;5196336;23;20230;-83
2022/09/16 15:52:45;;;;;;;2.78;0.77;;;20.10;62.90;;;;;;4969009;28;20188;-83
2022/09/16 15:59:47;;;;;;;1.23;0.68;;;20.10;63.40;;;;;;4887986;29;20211;-81
2022/09/16 16:06:08;;;;;;;3.63;0.70;;;20.10;63.30;;;;;;4881928;29;20192;-82
2022/09/16 16:11:24;;;;;;;4.45;0.90;;;20.10;63.70;;;;;;5013095;28;20226;-83
2022/09/16 16:14:00;;;;;;;2.40;0.70;;;20.10;63.70;;;;;;4937396;28;20180;-82
2022/09/16 16:16:32;;;;;;;2.50;0.90;;;20.10;63.70;;;;;;4949268;28;20175;-82
2022/09/16 16:19:13;;;;;;;1.35;0.60;;;20.10;63.90;;;;;;4943778;28;20206;-83
2022/09/16 16:21:45;;;;;;;1.15;0.80;;;20.10;63.90;;;;;;4966562;28;20219;-82
2022/09/16 16:24:23;;;;;;;2.25;0.90;;;20.10;64.00;;;;;;4997945;28;20167;-83
2022/09/16 16:27:30;;;;;;;2.35;1.05;;;20.20;64.10;;;;;;4934819;28;20187;-83
2022/09/16 16:33:20;;;;;;;1.13;0.70;;;20.20;64.00;;;;;;4916316;29;20198;-83
2022/09/16 16:35:49;;;;;;;1.73;0.75;;;20.20;64.00;;;;;;4906017;29;20256;-83
2022/09/16 16:38:34;;;;;;;3.08;0.80;;;20.10;64.00;;;;;;4901535;29;20255;-83
2022/09/16 16:41:00;;;;;;;1.30;0.90;;;20.20;64.10;;;;;;4902752;29;20222;-82
2022/09/16 16:43:31;;;;;;;1.00;0.85;;;20.20;64.10;;;;;;4917901;29;20159;-82
2022/09/16 16:46:09;;;;;;;1.90;0.73;;;20.10;63.90;;;;;;4917348;29;20250;-82
2022/09/16 16:48:35;;;;;;;4.95;0.90;;;20.10;64.00;;;;;;4917407;29;20193;-83
2022/09/16 16:51:09;;;;;;;4.28;0.77;;;20.10;64.00;;;;;;4903746;29;20495;-83
2022/09/16 16:53:48;;;;;;;0.73;0.73;;;20.10;63.90;;;;;;4902879;29;20217;-83
2022/09/16 16:56:18;;;;;;;3.38;0.90;;;20.10;64.00;;;;;;4885897;29;20207;-83
2022/09/16 16:58:45;;;;;;;0.95;0.80;;;20.10;63.80;;;;;;4852706;29;20187;-83
2022/09/16 17:01:48;;;;;;;1.77;0.93;;;20.10;63.90;;;;;;4898321;29;20255;-83
2022/09/16 17:04:24;;;;;;;4.93;0.90;;;20.10;63.80;;;;;;4858513;29;20182;-83
2022/09/16 17:07:02;;;;;;;1.02;0.93;;;20.10;63.90;;;;;;4873398;29;20197;-84
2022/09/16 17:09:29;;;;;;;1.63;0.80;;;20.10;64.00;;;;;;4915197;29;20223;-83
2022/09/16 17:12:07;;;;;;;1.35;0.80;;;20.10;64.00;;;;;;4901083;29;20187;-82
2022/09/16 17:14:38;;;;;;;2.25;0.80;;;20.10;64.00;;;;;;4895705;29;20228;-83
2022/09/16 17:17:17;;;;;;;3.97;1.08;;;20.10;64.00;;;;;;4866890;29;20207;-84
2022/09/16 17:19:52;;;;;;;1.27;0.70;;;20.10;63.90;;;;;;4882054;29;20199;-84
2022/09/16 17:22:28;;;;;;;2.53;0.90;;;20.10;64.00;;;;;;4879215;29;20208;-83
2022/09/16 17:24:58;;;;;;;2.05;1.00;;;20.10;63.90;;;;;;4858697;29;20275;-83
2022/09/16 17:27:28;;;;;;;1.85;0.85;;;20.00;63.80;;;;;;4889965;29;20191;-83
2022/09/16 17:29:54;;;;;;;1.50;0.80;;;20.10;63.80;;;;;;5603125;23;20599;-83
2022/09/16 17:40:10;;;;;;;2.25;0.93;;;20.10;63.70;;;;;;5205698;23;20229;-84
2022/09/16 17:42:40;;;;;;;2.65;0.85;;;20.10;63.70;;;;;;5047262;28;20169;-82
2022/09/16 17:45:11;;;;;;;1.90;0.90;;;20.10;63.80;;;;;;4997965;28;20545;-83
2022/09/16 17:47:37;;;;;;;1.38;0.85;;;20.10;63.70;;;;;;4995949;28;20237;-83
2022/09/16 17:50:09;;;;;;;1.23;0.73;;;20.10;63.60;;;;;;5029531;28;20193;-84
2022/09/16 17:52:39;;;;;;;6.35;1.00;;;20.10;63.60;;;;;;4980790;28;20182;-83
2022/09/16 17:55:10;;;;;;;2.35;0.93;;;20.10;63.60;;;;;;5013562;28;20182;-84
2022/09/16 17:57:40;;;;;;;2.47;0.90;;;20.10;63.50;;;;;;4997587;28;20174;-84
2022/09/16 18:00:16;;;;;;;1.15;1.05;;;20.10;63.40;;;;;;5014089;28;20217;-83
2022/09/16 18:02:50;;;;;;;1.77;1.10;;;20.10;63.30;;;;;;4998244;28;20192;-84
2022/09/16 18:05:20;;;;;;;2.40;0.80;;;20.10;63.40;;;;;;4982266;28;20192;-84
2022/09/16 18:07:46;;;;;;;1.20;0.80;;;20.00;63.20;;;;;;4997740;28;20679;-83
2022/09/16 18:10:16;;;;;;;1.42;0.68;;;20.10;63.10;;;;;;5031261;28;20193;-83
2022/09/16 18:12:42;;;;;;;1.40;0.88;;;20.10;63.10;;;;;;4997406;28;20181;-84
2022/09/16 18:15:15;;;;;;;2.15;1.00;;;20.10;63.00;;;;;;5046987;28;20236;-83
2022/09/16 18:17:52;;;;;;;1.45;0.90;;;20.10;62.90;;;;;;4996829;28;20544;-83
2022/09/16 18:20:24;;;;;;;2.22;1.10;;;20.00;62.80;;;;;;4996683;28;20767;-83
2022/09/16 18:22:54;;;;;;;1.13;1.02;;;20.10;62.80;;;;;;4995944;28;20605;-83
2022/09/16 18:25:24;;;;;;;1.38;1.02;;;20.10;62.70;;;;;;4996335;28;20245;-83
2022/09/16 18:27:55;;;;;;;1.20;1.10;;;20.10;62.70;;;;;;4996050;28;20259;-83
2022/09/16 18:30:25;;;;;;;1.52;0.90;;;20.00;62.50;;;;;;4996864;28;20228;-83
2022/09/16 18:32:52;;;;;;;2.75;1.15;;;20.00;62.50;;;;;;4996768;28;20178;-83
2022/09/16 18:35:24;;;;;;;1.38;1.10;;;20.10;62.40;;;;;;5029086;28;20224;-83
2022/09/16 18:37:56;;;;;;;1.15;1.00;;;20.00;62.30;;;;;;4996394;28;20184;-83
2022/09/16 18:40:26;;;;;;;2.08;1.20;;;20.10;62.30;;;;;;4992719;28;20253;-83
2022/09/16 18:42:57;;;;;;;1.85;1.02;;;20.00;62.20;;;;;;4977663;28;20186;-83
2022/09/16 18:45:23;;;;;;;1.00;0.85;;;20.00;62.00;;;;;;4977068;28;20179;-83
2022/09/16 18:47:51;;;;;;;1.30;1.20;;;20.00;62.00;;;;;;5010358;28;20659;-82
2022/09/16 18:50:25;;;;;;;1.23;1.10;;;20.00;62.00;;;;;;5010716;28;20171;-83
2022/09/16 18:52:51;;;;;;;2.20;1.30;;;20.00;62.00;;;;;;4960790;28;20182;-83
2022/09/16 18:55:22;;;;;;;1.77;1.17;;;20.00;61.90;;;;;;5010161;28;20170;-83
2022/09/16 18:57:48;;;;;;;1.30;1.20;;;20.00;62.00;;;;;;4960766;28;20632;-83
2022/09/16 19:00:20;;;;;;;1.20;1.10;;;20.00;61.80;;;;;;5010117;28;20208;-83
2022/09/16 19:02:52;;;;;;;1.00;1.00;;;20.00;61.70;;;;;;4959569;28;20193;-82
2022/09/16 19:05:18;;;;;;;1.20;1.10;;;20.00;61.60;;;;;;4960489;28;20190;-83
2022/09/16 19:07:50;;;;;;;1.40;1.30;;;20.00;61.60;;;;;;5026454;28;20174;-83
2022/09/16 19:10:16;;;;;;;0.98;0.80;;;20.00;61.50;;;;;;4960295;28;20197;-82
2022/09/16 19:12:47;;;;;;;0.77;0.77;;;19.90;61.40;;;;;;5025787;28;20161;-82
2022/09/16 19:15:14;;;;;;;1.40;0.85;;;20.00;61.40;;;;;;4961691;28;20193;-82
2022/09/16 19:17:44;;;;;;;2.40;1.20;;;20.00;61.20;;;;;;5027975;28;20151;-82
2022/09/16 19:20:15;;;;;;;1.15;1.05;;;20.00;61.40;;;;;;4961721;28;20265;-82
2022/09/16 19:22:47;;;;;;;2.85;1.08;;;20.00;61.20;;;;;;4961068;28;20179;-83
2022/09/16 19:25:13;;;;;;;1.20;0.90;;;20.00;61.00;;;;;;4960838;28;20175;-83
2022/09/16 19:27:39;;;;;;;0.80;0.80;;;19.90;61.00;;;;;;5024397;28;20605;-83
2022/09/16 19:30:16;;;;;;;1.08;0.90;;;20.00;60.90;;;;;;5006331;28;20175;-83
2022/09/16 19:32:42;;;;;;;1.23;0.90;;;20.00;60.90;;;;;;4957640;28;20178;-83
2022/09/16 19:35:16;;;;;;;0.80;0.80;;;19.90;60.80;;;;;;5007240;28;20614;-83
2022/09/16 19:37:43;;;;;;;1.50;0.90;;;20.00;60.80;;;;;;4959276;28;20236;-83
2022/09/16 19:40:14;;;;;;;0.70;0.70;;;20.00;60.90;;;;;;5040394;28;20371;-83
2022/09/16 19:42:46;;;;;;;2.15;0.80;;;19.90;60.70;;;;;;5009746;28;20182;-83
2022/09/16 19:45:13;;;;;;;1.10;1.00;;;19.90;60.70;;;;;;5011005;28;20178;-83
2022/09/16 19:47:44;;;;;;;1.00;0.90;;;19.90;60.70;;;;;;5029121;28;20223;-83
2022/09/16 19:50:13;;;;;;;0.82;0.82;;;19.90;60.70;;;;;;4982103;28;20255;-83
2022/09/16 19:52:43;;;;;;;1.25;1.10;;;20.00;60.60;;;;;;5013898;28;20212;-83
2022/09/16 19:55:14;;;;;;;0.65;0.65;;;19.90;60.50;;;;;;5014120;28;20536;-83
2022/09/16 19:57:44;;;;;;;0.90;0.90;;;19.90;60.60;;;;;;4981609;28;20265;-82
2022/09/16 20:00:13;;;;;;;0.82;0.82;;;19.90;60.40;;;;;;5013276;28;20234;-82
2022/09/16 20:02:44;;;;;;;0.82;0.80;;;19.90;60.50;;;;;;5030865;28;20166;-83
2022/09/16 20:05:14;;;;;;;2.25;0.70;;;19.90;60.50;;;;;;4997391;28;20174;-82
2022/09/16 20:07:44;;;;;;;1.08;1.02;;;19.90;60.50;;;;;;4997826;28;20182;-83
2022/09/16 20:10:15;;;;;;;1.55;0.77;;;19.90;60.40;;;;;;4997123;28;20186;-82
2022/09/16 20:12:52;;;;;;;0.98;0.88;;;19.90;60.50;;;;;;5013443;28;20186;-83
2022/09/16 20:15:23;;;;;;;1.00;0.90;;;19.90;60.60;;;;;;4998489;28;20201;-83
2022/09/16 20:17:49;;;;;;;0.98;0.85;;;19.90;60.40;;;;;;5014011;28;20206;-83
2022/09/16 20:20:21;;;;;;;0.80;0.80;;;19.90;60.40;;;;;;5030279;28;20205;-83
2022/09/16 20:22:49;;;;;;;0.80;0.80;;;19.80;60.10;;;;;;4982435;28;20190;-83
2022/09/16 20:25:24;;;;;;;0.90;0.77;;;19.90;60.20;;;;;;5013747;28;20688;-83
2022/09/16 20:27:50;;;;;;;0.75;0.75;;;19.90;60.20;;;;;;4996659;28;20271;-82
2022/09/16 20:30:16;;;;;;;0.95;0.90;;;19.80;60.10;;;;;;5047059;28;20170;-83
2022/09/16 20:32:42;;;;;;;0.75;0.75;;;19.80;60.10;;;;;;5047322;28;20166;-83
2022/09/16 20:35:08;;;;;;;0.90;0.90;;;19.80;60.10;;;;;;5030649;28;20162;-83
2022/09/16 20:37:34;;;;;;;0.85;0.85;;;19.80;60.10;;;;;;5030976;28;20166;-83
2022/09/16 20:40:00;;;;;;;0.80;0.80;;;19.80;60.00;;;;;;5030008;28;20229;-83
2022/09/16 20:42:37;;;;;;;0.73;0.73;;;19.80;60.00;;;;;;5030410;28;20540;-83
2022/09/16 20:45:04;;;;;;;1.10;1.00;;;19.80;59.90;;;;;;4980855;28;20231;-83
2022/09/16 20:47:35;;;;;;;1.00;0.98;;;19.80;60.10;;;;;;5029345;28;20622;-83
2022/09/16 20:50:17;;;;;;;0.85;0.85;;;19.80;60.10;;;;;;5029776;28;20225;-82
2022/09/16 20:52:57;;;;;;;0.70;0.70;;;19.80;60.10;;;;;;4997600;28;20205;-83
2022/09/16 20:55:30;;;;;;;0.80;0.80;;;19.70;60.30;;;;;;5014267;28;20189;-83
2022/09/16 20:57:56;;;;;;;1.00;0.90;;;19.80;60.40;;;;;;4998051;28;20231;-83
2022/09/16 21:00:22;;;;;;;0.95;0.95;;;19.80;60.30;;;;;;5046399;28;20193;-83
2022/09/16 21:02:56;;;;;;;1.50;0.80;;;19.80;60.30;;;;;;5030744;28;20178;-82
2022/09/16 21:05:33;;;;;;;0.80;0.80;;;19.80;60.30;;;;;;4981883;28;20285;-82
2022/09/16 21:07:59;;;;;;;1.00;0.93;;;19.80;60.30;;;;;;4998005;28;20547;-82
2022/09/16 21:10:29;;;;;;;1.17;0.80;;;19.70;60.20;;;;;;5030635;28;20561;-82
2022/09/16 21:12:56;;;;;;;1.10;1.00;;;19.80;60.40;;;;;;4981124;28;20261;-83
2022/09/16 21:15:26;;;;;;;0.90;0.90;;;19.80;60.40;;;;;;5030682;28;20170;-82
2022/09/16 21:17:54;;;;;;;1.10;0.80;;;19.80;60.50;;;;;;4980906;28;20182;-83
2022/09/16 21:20:25;;;;;;;1.00;0.90;;;19.80;60.60;;;;;;5030316;28;20204;-83
2022/09/16 21:22:51;;;;;;;1.10;1.00;;;19.80;60.60;;;;;;4981754;28;20178;-83
2022/09/16 21:25:28;;;;;;;0.90;0.90;;;19.70;60.60;;;;;;5030632;28;20158;-83
2022/09/16 21:28:00;;;;;;;1.40;1.10;;;19.80;60.70;;;;;;4997908;28;20182;-83
2022/09/16 21:30:27;;;;;;;1.13;1.10;;;19.80;60.70;;;;;;5013409;28;20245;-83
2022/09/16 21:32:52;;;;;;;1.20;1.10;;;19.80;60.70;;;;;;5030300;28;20192;-83
2022/09/16 21:35:22;;;;;;;1.10;1.00;;;19.70;60.80;;;;;;5030590;28;20162;-83
2022/09/16 21:37:54;;;;;;;1.20;1.10;;;19.70;61.00;;;;;;4980762;28;20178;-82
2022/09/16 21:40:26;;;;;;;1.30;1.20;;;19.80;61.30;;;;;;4993678;28;20275;-83
2022/09/16 21:42:52;;;;;;;1.20;1.10;;;19.80;61.20;;;;;;4961193;28;20190;-83
2022/09/16 21:45:22;;;;;;;1.27;1.17;;;19.70;61.30;;;;;;5011305;28;20174;-83
2022/09/16 21:47:51;;;;;;;1.20;1.10;;;19.80;61.40;;;;;;4961826;28;20218;-82
2022/09/16 21:50:21;;;;;;;1.35;1.20;;;19.70;61.40;;;;;;5027130;28;20159;-82
2022/09/16 21:52:51;;;;;;;1.20;1.13;;;19.70;61.60;;;;;;4960850;28;20236;-82
2022/09/16 21:55:17;;;;;;;1.23;1.13;;;19.70;61.60;;;;;;4977125;28;20205;-82
2022/09/16 21:57:45;;;;;;;1.05;1.05;;;19.70;61.70;;;;;;5010097;28;20166;-82
2022/09/16 22:00:11;;;;;;;1.13;1.02;;;19.70;61.70;;;;;;5010901;28;20198;-82
2022/09/16 22:02:41;;;;;;;2.85;1.15;;;19.80;61.80;;;;;;5027515;28;20186;-82
2022/09/16 22:05:12;;;;;;;1.27;1.17;;;19.70;61.80;;;;;;4977591;28;20246;-82
2022/09/16 22:07:42;;;;;;;0.85;0.85;;;19.70;61.80;;;;;;4961769;28;20182;-82
2022/09/16 22:10:08;;;;;;;1.10;1.10;;;19.70;61.80;;;;;;4960324;28;20186;-82
2022/09/16 22:12:36;;;;;;;1.15;1.05;;;19.70;61.80;;;;;;5044332;28;20178;-82
2022/09/16 22:15:12;;;;;;;2.33;1.13;;;19.70;61.80;;;;;;5010713;28;20159;-82
2022/09/16 22:17:44;;;;;;;1.40;1.30;;;19.70;61.90;;;;;;4961767;28;20177;-82
2022/09/16 22:20:10;;;;;;;1.38;1.27;;;19.70;61.80;;;;;;4961086;28;20217;-82
2022/09/16 22:22:41;;;;;;;1.55;1.15;;;19.70;61.90;;;;;;5010582;28;20261;-83
2022/09/16 22:25:12;;;;;;;1.40;1.30;;;19.70;62.00;;;;;;4962041;28;20174;-83
2022/09/16 22:27:38;;;;;;;1.25;1.15;;;19.70;61.90;;;;;;4960151;28;20213;-83
2022/09/16 22:30:04;;;;;;;1.35;1.15;;;19.70;61.80;;;;;;5010181;28;20506;-83
2022/09/16 22:32:36;;;;;;;1.25;1.15;;;19.80;61.90;;;;;;5010723;28;20175;-83
2022/09/16 22:35:06;;;;;;;1.35;1.15;;;19.70;61.70;;;;;;4961359;28;20178;-84
2022/09/16 22:37:38;;;;;;;1.10;1.10;;;19.70;61.50;;;;;;4977536;28;20261;-83
2022/09/16 22:40:09;;;;;;;1.23;1.13;;;19.70;61.60;;;;;;4960343;28;20226;-83
2022/09/16 22:42:39;;;;;;;1.27;1.17;;;19.70;61.50;;;;;;4977438;28;20179;-83
2022/09/16 22:45:09;;;;;;;1.13;1.05;;;19.70;61.40;;;;;;4977054;28;20182;-83
2022/09/16 22:47:39;;;;;;;1.45;1.15;;;19.70;61.30;;;;;;4960557;28;20186;-82
2022/09/16 22:50:09;;;;;;;1.20;1.10;;;19.70;61.40;;;;;;4960887;28;20185;-83
2022/09/16 22:52:39;;;;;;;1.30;1.20;;;19.70;61.40;;;;;;4976782;28;20221;-83
2022/09/16 22:55:06;;;;;;;1.27;1.17;;;19.70;61.40;;;;;;4977589;28;20193;-83
2022/09/16 22:57:32;;;;;;;1.30;1.20;;;19.70;61.30;;;;;;5043842;28;20174;-83
2022/09/16 23:00:06;;;;;;;1.20;1.10;;;19.70;61.40;;;;;;5009421;28;20610;-82
2022/09/16 23:02:35;;;;;;;1.23;1.13;;;19.70;61.50;;;;;;4961208;28;20189;-83
2022/09/16 23:05:02;;;;;;;1.30;1.20;;;19.70;61.60;;;;;;4960505;28;20182;-85
2022/09/16 23:07:34;;;;;;;0.98;0.98;;;19.60;61.40;;;;;;5026735;28;20192;-82
2022/09/16 23:09:59;;;;;;;1.05;1.05;;;19.60;61.50;;;;;;4976887;28;20174;-83
2022/09/16 23:12:33;;;;;;;1.00;1.00;;;19.60;61.50;;;;;;5009948;28;20171;-82
2022/09/16 23:15:10;;;;;;;1.20;1.10;;;19.60;61.60;;;;;;4961599;28;20186;-83
2022/09/16 23:17:38;;;;;;;1.30;1.20;;;19.60;61.60;;;;;;4977568;28;20182;-83
2022/09/16 23:20:10;;;;;;;1.83;0.90;;;19.70;61.70;;;;;;5025615;28;20194;-83
2022/09/16 23:22:41;;;;;;;1.20;1.10;;;19.60;61.70;;;;;;4977222;28;20646;-83
2022/09/16 23:25:07;;;;;;;1.40;1.10;;;19.70;61.70;;;;;;4964428;28;20187;-82
2022/09/16 23:27:42;;;;;;;1.30;1.20;;;19.60;61.70;;;;;;5029685;28;20155;-82
2022/09/16 23:30:09;;;;;;;1.15;1.08;;;19.60;61.70;;;;;;4963784;28;20254;-83
2022/09/16 23:32:35;;;;;;;1.33;1.23;;;19.60;61.80;;;;;;5029476;28;20171;-83
2022/09/16 23:35:07;;;;;;;1.30;1.20;;;19.70;61.80;;;;;;5029836;28;20155;-83
2022/09/16 23:37:33;;;;;;;1.20;1.10;;;19.70;61.80;;;;;;4996372;28;20190;-83
2022/09/16 23:39:59;;;;;;;1.20;1.10;;;19.70;62.70;;;;;;5028285;28;20213;-83
2022/09/16 23:42:29;;;;;;;1.38;1.08;;;19.60;61.80;;;;;;5032790;28;20555;-83
2022/09/16 23:44:55;;;;;;;1.23;1.13;;;19.70;61.90;;;;;;5016279;28;20278;-83
2022/09/16 23:47:22;;;;;;;1.33;1.23;;;19.60;61.90;;;;;;5050276;28;20162;-83
2022/09/16 23:49:48;;;;;;;1.25;1.15;;;19.60;61.90;;;;;;5033593;28;20169;-82
2022/09/16 23:52:18;;;;;;;1.05;1.05;;;19.60;62.00;;;;;;5032701;28;20170;-82
2022/09/16 23:54:44;;;;;;;1.08;1.00;;;19.60;62.00;;;;;;4999430;28;20544;-83
2022/09/16 23:57:10;;;;;;;1.38;1.27;;;19.60;62.00;;;;;;5032970;28;20224;-83
2022/09/16 23:59:37;;;;;;;1.75;1.08;;;19.60;62.00;;;;;;5032388;28;20181;-83
